Time;durP1;ratioP1;P1;durP2;ratioP2;P2;SDS_P1;SDS_P2;PMS_P1;PMS_P2;Temp;Humidity;BMP_temperature;BMP_pressure;BME280_temperature;BME280_humidity;BME280_pressure;Samples;Min_cycle;Max_cycle;Signal;HPM_P1;HPM_P2
2021/01/28 00:02:09;;;;;;;249.10;53.00;;;;;;;;;;5105962;28;20357;-71
2021/01/28 00:04:34;;;;;;;272.17;52.87;;;;;;;;;;5114885;28;20016;-71
2021/01/28 00:06:59;;;;;;;236.80;53.57;;;;;;;;;;5118298;28;20045;-71
2021/01/28 00:09:25;;;;;;;315.67;57.10;;;;;;;;;;5113007;28;20658;-71
2021/01/28 00:11:50;;;;;;;166.87;48.73;;;;;;;;;;5103640;28;20039;-72
2021/01/28 00:14:15;;;;;;;231.40;55.03;;;;;;;;;;5097389;28;20118;-72
2021/01/28 00:16:40;;;;;;;270.73;56.00;;;;;;;;;;5101074;28;20054;-72
2021/01/28 00:19:06;;;;;;;343.73;60.00;;;;;;;;;;5099511;28;20040;-71
2021/01/28 00:21:31;;;;;;;340.87;57.10;;;;;;;;;;5098365;28;20016;-71
2021/01/28 00:23:56;;;;;;;277.77;56.27;;;;;;;;;;5095842;28;20021;-71
2021/01/28 00:26:21;;;;;;;310.13;55.17;;;;;;;;;;5095816;28;20414;-71
2021/01/28 00:28:46;;;;;;;439.60;61.27;;;;;;;;;;5096453;28;20080;-71
2021/01/28 00:31:12;;;;;;;394.00;61.43;;;;;;;;;;5104413;28;20031;-71
2021/01/28 00:33:37;;;;;;;351.73;58.30;;;;;;;;;;5100480;28;20078;-71
2021/01/28 00:36:03;;;;;;;282.63;57.10;;;;;;;;;;5102680;28;20362;-71
2021/01/28 00:38:30;;;;;;;375.40;59.00;;;;;;;;;;5095271;28;20019;-71
2021/01/28 00:40:56;;;;;;;322.95;59.55;;;;;;;;;;5100288;28;20051;-71
2021/01/28 00:43:22;;;;;;;278.63;57.83;;;;;;;;;;5089523;28;20059;-72
2021/01/28 00:45:47;;;;;;;277.48;54.15;;;;;;;;;;5100433;28;20020;-71
2021/01/28 00:48:13;;;;;;;379.30;62.00;;;;;;;;;;5099325;28;20363;-71
2021/01/28 00:50:39;;;;;;;291.05;57.53;;;;;;;;;;5093841;28;20485;-71
2021/01/28 00:53:04;;;;;;;349.40;60.28;;;;;;;;;;5090744;28;20028;-71
2021/01/28 00:55:30;;;;;;;354.97;61.87;;;;;;;;;;5098078;28;20036;-71
2021/01/28 00:57:55;;;;;;;296.50;56.00;;;;;;;;;;5097445;28;20103;-72
2021/01/28 01:00:23;;;;;;;285.50;55.40;;;;;;;;;;5095163;28;20083;-71
2021/01/28 01:02:48;;;;;;;310.13;57.92;;;;;;;;;;5099415;28;20023;-71
2021/01/28 01:05:18;;;;;;;348.87;58.10;;;;;;;;;;5106050;28;20028;-71
2021/01/28 01:07:43;;;;;;;340.35;58.13;;;;;;;;;;5097492;28;20020;-71
2021/01/28 01:10:11;;;;;;;337.00;58.27;;;;;;;;;;5101633;28;20039;-71
2021/01/28 01:12:36;;;;;;;352.95;56.25;;;;;;;;;;5099893;28;20035;-71
2021/01/28 01:15:02;;;;;;;412.57;60.87;;;;;;;;;;5100828;28;20019;-71
2021/01/28 01:17:27;;;;;;;240.50;52.05;;;;;;;;;;5095978;28;20020;-72
2021/01/28 01:19:52;;;;;;;317.63;53.77;;;;;;;;;;5110363;28;20019;-71
2021/01/28 01:22:17;;;;;;;296.50;53.43;;;;;;;;;;5099099;28;20020;-71
2021/01/28 01:24:42;;;;;;;317.13;54.53;;;;;;;;;;5094611;28;20476;-71
2021/01/28 01:27:08;;;;;;;265.37;50.07;;;;;;;;;;5102711;28;20437;-71
2021/01/28 01:29:33;;;;;;;388.10;57.37;;;;;;;;;;5097171;28;20028;-71
2021/01/28 01:31:58;;;;;;;443.50;62.97;;;;;;;;;;5091838;28;20777;-71
2021/01/28 01:34:24;;;;;;;360.30;58.50;;;;;;;;;;5111472;28;20069;-71
2021/01/28 01:36:49;;;;;;;259.67;52.03;;;;;;;;;;5107390;28;20405;-71
2021/01/28 01:39:14;;;;;;;359.37;59.20;;;;;;;;;;5095877;28;20036;-71
2021/01/28 01:41:40;;;;;;;345.33;55.83;;;;;;;;;;5096673;28;20016;-71
2021/01/28 01:44:05;;;;;;;414.27;59.97;;;;;;;;;;5095073;28;20023;-71
2021/01/28 01:46:31;;;;;;;314.37;54.20;;;;;;;;;;5094395;28;20402;-71
2021/01/28 01:49:01;;;;;;;424.52;59.00;;;;;;;;;;5081700;28;20071;-71
2021/01/28 01:51:26;;;;;;;322.42;55.47;;;;;;;;;;5090204;28;20017;-71
2021/01/28 01:53:54;;;;;;;339.27;55.37;;;;;;;;;;5096791;28;20031;-71
2021/01/28 01:56:25;;;;;;;257.05;50.90;;;;;;;;;;5105189;28;20274;-71
2021/01/28 01:59:00;;;;;;;453.92;64.20;;;;;;;;;;5094250;28;20028;-71
2021/01/28 02:01:27;;;;;;;330.48;56.05;;;;;;;;;;5091423;28;20048;-71
2021/01/28 02:03:53;;;;;;;376.67;58.95;;;;;;;;;;5084536;28;20035;-71
2021/01/28 02:06:24;;;;;;;369.65;57.17;;;;;;;;;;5096768;28;20024;-71
2021/01/28 02:08:52;;;;;;;456.70;62.55;;;;;;;;;;5090280;28;20020;-71
2021/01/28 02:11:17;;;;;;;387.60;59.83;;;;;;;;;;5095687;28;20026;-71
2021/01/28 02:13:44;;;;;;;526.90;65.50;;;;;;;;;;5095037;28;20106;-71
2021/01/28 02:16:11;;;;;;;412.25;59.55;;;;;;;;;;5097338;28;20027;-71
2021/01/28 02:18:36;;;;;;;391.00;58.60;;;;;;;;;;5096457;28;20030;-71
2021/01/28 02:21:06;;;;;;;463.57;59.73;;;;;;;;;;5098827;28;20024;-71
2021/01/28 02:23:38;;;;;;;457.63;62.85;;;;;;;;;;5088076;28;20047;-71
2021/01/28 02:26:04;;;;;;;396.77;60.38;;;;;;;;;;5091619;28;20075;-71
2021/01/28 02:28:31;;;;;;;339.60;57.35;;;;;;;;;;5097553;28;20048;-71
2021/01/28 02:30:58;;;;;;;420.15;60.10;;;;;;;;;;5087987;28;20363;-71
2021/01/28 02:33:38;;;;;;;288.35;52.13;;;;;;;;;;5104834;28;20024;-71
2021/01/28 02:36:03;;;;;;;418.20;56.20;;;;;;;;;;5096343;28;20023;-71
2021/01/28 02:38:28;;;;;;;410.03;56.33;;;;;;;;;;5080556;28;20072;-71
2021/01/28 02:40:54;;;;;;;382.67;54.47;;;;;;;;;;5091037;28;20035;-71
2021/01/28 02:43:19;;;;;;;368.93;53.03;;;;;;;;;;5098404;28;20419;-72
2021/01/28 02:45:44;;;;;;;360.57;51.10;;;;;;;;;;5092882;28;20082;-71
2021/01/28 02:48:11;;;;;;;393.83;52.33;;;;;;;;;;5092329;28;20524;-71
2021/01/28 02:50:36;;;;;;;406.40;53.70;;;;;;;;;;5094561;28;20409;-71
2021/01/28 02:53:03;;;;;;;444.70;57.33;;;;;;;;;;5097990;28;20042;-71
2021/01/28 02:55:28;;;;;;;466.02;57.00;;;;;;;;;;5091719;28;20024;-71
2021/01/28 02:57:54;;;;;;;508.15;58.20;;;;;;;;;;5100431;28;20023;-71
2021/01/28 03:00:21;;;;;;;405.47;52.60;;;;;;;;;;5096058;28;20111;-71
2021/01/28 03:02:49;;;;;;;487.75;55.85;;;;;;;;;;5094621;28;20563;-71
2021/01/28 03:05:14;;;;;;;416.77;52.05;;;;;;;;;;5091540;28;20328;-72
2021/01/28 03:07:39;;;;;;;405.73;51.10;;;;;;;;;;5097478;28;20062;-71
2021/01/28 03:10:05;;;;;;;403.63;50.50;;;;;;;;;;5093814;28;20020;-71
2021/01/28 03:12:30;;;;;;;320.55;47.92;;;;;;;;;;5093746;28;20077;-71
2021/01/28 03:14:56;;;;;;;375.43;51.37;;;;;;;;;;5102728;28;20016;-71
2021/01/28 03:17:21;;;;;;;311.70;48.93;;;;;;;;;;5091917;28;20073;-71
2021/01/28 03:19:46;;;;;;;420.23;51.73;;;;;;;;;;5100301;28;20061;-71
2021/01/28 03:22:11;;;;;;;362.90;49.50;;;;;;;;;;5098346;28;20021;-71
2021/01/28 03:24:36;;;;;;;356.33;49.47;;;;;;;;;;5096077;28;20012;-71
2021/01/28 03:27:02;;;;;;;492.17;58.37;;;;;;;;;;5097779;28;20035;-71
2021/01/28 03:29:27;;;;;;;444.27;56.47;;;;;;;;;;5098199;28;20024;-71
2021/01/28 03:31:52;;;;;;;371.00;50.97;;;;;;;;;;5096261;28;20433;-71
2021/01/28 03:34:18;;;;;;;453.57;57.80;;;;;;;;;;5098978;28;20102;-71
2021/01/28 03:36:43;;;;;;;383.60;50.73;;;;;;;;;;5093772;28;20046;-71
2021/01/28 03:39:08;;;;;;;414.23;53.00;;;;;;;;;;5098342;28;20031;-71
2021/01/28 03:41:34;;;;;;;473.13;57.07;;;;;;;;;;5091537;28;20020;-71
2021/01/28 03:43:59;;;;;;;437.47;55.87;;;;;;;;;;5096432;28;20394;-71
2021/01/28 03:46:24;;;;;;;411.50;52.53;;;;;;;;;;5100608;28;20111;-71
2021/01/28 03:48:49;;;;;;;368.97;50.30;;;;;;;;;;5092765;28;20017;-71
2021/01/28 03:51:15;;;;;;;369.80;49.53;;;;;;;;;;5103261;28;20039;-71
2021/01/28 03:53:40;;;;;;;327.43;47.80;;;;;;;;;;5097131;28;20013;-71
2021/01/28 03:56:05;;;;;;;428.87;53.53;;;;;;;;;;5095607;28;20468;-71
2021/01/28 03:58:30;;;;;;;372.10;49.73;;;;;;;;;;5093651;28;20027;-71
2021/01/28 04:00:56;;;;;;;411.80;53.67;;;;;;;;;;5101785;28;20044;-71
2021/01/28 04:03:21;;;;;;;378.00;51.97;;;;;;;;;;5099056;28;20039;-71
2021/01/28 04:05:46;;;;;;;401.40;51.40;;;;;;;;;;5100813;28;20020;-71
2021/01/28 04:08:11;;;;;;;376.30;50.77;;;;;;;;;;5102956;28;20050;-71
2021/01/28 04:10:37;;;;;;;393.90;52.33;;;;;;;;;;5111141;28;20024;-71
2021/01/28 04:13:03;;;;;;;420.42;52.05;;;;;;;;;;5089373;28;20020;-71
2021/01/28 04:15:29;;;;;;;393.88;51.60;;;;;;;;;;5104211;28;20468;-71
2021/01/28 04:17:54;;;;;;;356.03;49.73;;;;;;;;;;5100072;28;20090;-71
2021/01/28 04:20:26;;;;;;;405.00;50.33;;;;;;;;;;5098863;28;20023;-71
2021/01/28 04:22:51;;;;;;;352.98;47.10;;;;;;;;;;5098314;28;20028;-71
2021/01/28 04:25:19;;;;;;;283.93;43.63;;;;;;;;;;5089600;28;20013;-71
2021/01/28 04:27:48;;;;;;;259.38;40.83;;;;;;;;;;5099260;28;20309;-71
2021/01/28 04:30:18;;;;;;;291.13;44.65;;;;;;;;;;5090174;28;20032;-71
2021/01/28 04:32:43;;;;;;;363.80;44.83;;;;;;;;;;5107257;28;20309;-71
2021/01/28 04:35:09;;;;;;;215.03;37.67;;;;;;;;;;5092142;28;20024;-71
2021/01/28 04:37:41;;;;;;;197.15;37.30;;;;;;;;;;5093148;28;20024;-71
2021/01/28 04:40:25;;;;;;;232.27;38.40;;;;;;;;;;5098551;28;20022;-71
2021/01/28 04:42:50;;;;;;;179.70;33.38;;;;;;;;;;5100040;28;20102;-71
2021/01/28 04:45:19;;;;;;;187.53;32.40;;;;;;;;;;5096807;28;20103;-71
2021/01/28 04:47:53;;;;;;;154.48;30.23;;;;;;;;;;5096492;28;20023;-72
2021/01/28 04:50:26;;;;;;;129.55;30.42;;;;;;;;;;5084926;28;20024;-72
2021/01/28 04:52:53;;;;;;;109.43;27.42;;;;;;;;;;5101869;28;20040;-71
2021/01/28 04:55:22;;;;;;;120.70;28.52;;;;;;;;;;5094401;28;20070;-71
2021/01/28 04:57:50;;;;;;;94.70;26.00;;;;;;;;;;5095195;28;20313;-71
2021/01/28 05:00:16;;;;;;;95.43;25.25;;;;;;;;;;5095258;28;20052;-71
2021/01/28 05:02:41;;;;;;;88.53;23.23;;;;;;;;;;5085820;28;20014;-71
2021/01/28 05:05:07;;;;;;;82.00;24.20;;;;;;;;;;5086724;28;20306;-72
2021/01/28 05:07:36;;;;;;;81.70;23.60;;;;;;;;;;5081537;28;20402;-72
2021/01/28 05:10:07;;;;;;;77.70;23.17;;;;;;;;;;5099203;28;20421;-71
2021/01/28 05:12:33;;;;;;;71.75;24.00;;;;;;;;;;5098180;28;20087;-72
2021/01/28 05:15:31;;;;;;;68.25;21.48;;;;;;;;;;5105082;28;20123;-72
2021/01/28 05:17:56;;;;;;;;;;;;;;;;;;5043323;28;20072;-71
2021/01/28 05:20:25;;;;;;;61.40;21.85;;;;;;;;;;5052980;28;20040;-72
2021/01/28 05:23:01;;;;;;;60.35;20.83;;;;;;;;;;5055693;28;20021;-72
2021/01/28 05:25:27;;;;;;;57.30;20.90;;;;;;;;;;5056497;28;20021;-72
2021/01/28 05:27:52;;;;;;;62.10;21.43;;;;;;;;;;5054054;28;20033;-71
2021/01/28 05:30:34;;;;;;;54.67;19.70;;;;;;;;;;5057857;28;20303;-72
2021/01/28 05:32:59;;;;;;;47.97;19.63;;;;;;;;;;5060858;28;20696;-71
2021/01/28 05:35:25;;;;;;;52.67;20.60;;;;;;;;;;5059535;28;20029;-72
2021/01/28 05:38:01;;;;;;;37.80;18.60;;;;;;;;;;5054044;28;20113;-72
2021/01/28 05:40:27;;;;;;;39.42;18.75;;;;;;;;;;5048342;28;20032;-71
2021/01/28 05:42:53;;;;;;;36.30;17.03;;;;;;;;;;5056009;28;20299;-72
2021/01/28 05:45:18;;;;;;;34.70;17.10;;;;;;;;;;5055647;28;20020;-72
2021/01/28 05:47:43;;;;;;;40.93;17.93;;;;;;;;;;5056824;28;20064;-72
2021/01/28 05:50:16;;;;;;;36.07;17.17;;;;;;;;;;5047988;28;20020;-71
2021/01/28 05:52:41;;;;;;;34.85;17.60;;;;;;;;;;5066957;28;20079;-72
2021/01/28 05:55:09;;;;;;;35.37;17.77;;;;;;;;;;5092431;28;20048;-72
2021/01/28 05:57:34;;;;;;;34.17;17.65;;;;;;;;;;5099568;28;20329;-71
2021/01/28 06:00:02;;;;;;;36.53;16.40;;;;;;;;;;5094176;28;20044;-71
2021/01/28 06:02:37;;;;;;;33.22;16.27;;;;;;;;;;5089381;28;20023;-72
2021/01/28 06:05:22;;;;;;;30.00;16.05;;;;;;;;;;5093713;28;20054;-72
2021/01/28 06:08:10;;;;;;;32.03;15.90;;;;;;;;;;5060667;28;20315;-72
2021/01/28 06:10:58;;;;;;;27.08;14.10;;;;;;;;;;5063066;28;20093;-72
2021/01/28 06:13:39;;;;;;;28.83;13.82;;;;;;;;;;5067648;28;20032;-72
2021/01/28 06:16:20;;;;;;;27.52;13.68;;;;;;;;;;5078074;28;20024;-71
2021/01/28 06:18:54;;;;;;;26.88;13.88;;;;;;;;;;5081112;28;20036;-72
2021/01/28 06:21:38;;;;;;;24.73;13.77;;;;;;;;;;5075220;28;20108;-72
2021/01/28 06:24:06;;;;;;;25.52;13.95;;;;;;;;;;5076433;28;20067;-72
2021/01/28 06:26:40;;;;;;;27.35;14.88;;;;;;;;;;5074499;28;20401;-72
2021/01/28 06:29:28;;;;;;;26.80;13.85;;;;;;;;;;5072688;28;20051;-72
2021/01/28 06:31:59;;;;;;;23.15;13.55;;;;;;;;;;4987159;28;20466;-72
2021/01/28 06:34:24;;;;;;;26.58;14.38;;;;;;;;;;4994366;28;20038;-72
2021/01/28 06:36:52;;;;;;;25.17;13.33;;;;;;;;;;4994156;28;20041;-71
2021/01/28 06:39:24;;;;;;;24.73;14.25;;;;;;;;;;4994179;28;20038;-71
2021/01/28 06:42:12;;;;;;;27.48;14.45;;;;;;;;;;4988227;28;20018;-72
2021/01/28 06:44:48;;;;;;;25.05;13.57;;;;;;;;;;5009480;28;20716;-72
2021/01/28 06:47:26;;;;;;;23.17;13.60;;;;;;;;;;5020567;28;20025;-71
2021/01/28 06:49:57;;;;;;;23.15;13.07;;;;;;;;;;5032240;28;20033;-72
2021/01/28 06:52:34;;;;;;;19.33;12.07;;;;;;;;;;5028821;28;20025;-72
2021/01/28 06:55:04;;;;;;;19.80;11.38;;;;;;;;;;5018690;28;20684;-72
2021/01/28 06:57:37;;;;;;;19.75;11.38;;;;;;;;;;5017658;28;20427;-73
2021/01/28 07:00:21;;;;;;;19.65;11.63;;;;;;;;;;5024318;28;20442;-72
2021/01/28 07:03:04;;;;;;;18.85;10.95;;;;;;;;;;5019715;28;20042;-72
2021/01/28 07:05:35;;;;;;;19.05;10.95;;;;;;;;;;5027606;28;20329;-70
2021/01/28 07:08:09;;;;;;;15.98;10.32;;;;;;;;;;5035237;28;20028;-71
2021/01/28 07:10:39;;;;;;;17.42;10.82;;;;;;;;;;5090464;28;20056;-71
2021/01/28 07:13:10;;;;;;;16.73;10.80;;;;;;;;;;5083150;28;20024;-71
2021/01/28 07:15:35;;;;;;;14.98;9.75;;;;;;;;;;5079287;28;20388;-72
2021/01/28 07:18:10;;;;;;;17.67;11.50;;;;;;;;;;5102382;28;20102;-72
2021/01/28 07:20:37;;;;;;;18.67;11.65;;;;;;;;;;5083018;28;20058;-71
2021/01/28 07:23:22;;;;;;;17.40;10.73;;;;;;;;;;5090064;28;20024;-72
2021/01/28 07:25:47;;;;;;;16.40;9.43;;;;;;;;;;5098584;28;20028;-71
2021/01/28 07:28:18;;;;;;;13.57;9.30;;;;;;;;;;5110240;28;20397;-72
2021/01/28 07:30:46;;;;;;;14.07;9.45;;;;;;;;;;5097885;28;20430;-71
2021/01/28 07:33:23;;;;;;;15.25;9.20;;;;;;;;;;5086257;28;20716;-71
2021/01/28 07:35:50;;;;;;;13.73;9.75;;;;;;;;;;5093840;28;20115;-71
2021/01/28 07:38:15;;;;;;;;;;;;;;;;;;5092953;28;20035;-71
2021/01/28 07:40:59;;;;;;;14.43;9.52;;;;;;;;;;5111706;28;19912;-71
2021/01/28 07:43:28;;;;;;;14.82;10.02;;;;;;;;;;5080423;28;20024;-71
2021/01/28 07:46:12;;;;;;;14.93;9.40;;;;;;;;;;5085520;28;20050;-71
2021/01/28 07:48:39;;;;;;;12.98;8.77;;;;;;;;;;5080332;28;20077;-71
2021/01/28 07:51:04;;;;;;;;;;;;;;;;;;5090100;28;20290;-71
2021/01/28 07:53:37;;;;;;;13.88;9.73;;;;;;;;;;5098794;28;19915;-71
2021/01/28 07:56:03;;;;;;;13.63;9.70;;;;;;;;;;5086898;28;20095;-72
2021/01/28 07:58:36;;;;;;;13.90;9.63;;;;;;;;;;5080130;28;20095;-71
2021/01/28 08:01:05;;;;;;;13.18;9.35;;;;;;;;;;5099103;28;20040;-71
2021/01/28 08:03:33;;;;;;;12.68;9.38;;;;;;;;;;5086417;28;20024;-71
2021/01/28 08:06:01;;;;;;;17.48;8.82;;;;;;;;;;5082407;28;20492;-71
2021/01/28 08:08:29;;;;;;;13.40;8.88;;;;;;;;;;5088103;28;20020;-71
2021/01/28 08:11:10;;;;;;;11.60;9.15;;;;;;;;;;5089073;28;20028;-71
2021/01/28 08:13:36;;;;;;;16.70;9.90;;;;;;;;;;5090332;28;20024;-71
2021/01/28 08:16:06;;;;;;;11.23;8.32;;;;;;;;;;5089926;28;20028;-72
2021/01/28 08:18:32;;;;;;;14.25;9.50;;;;;;;;;;5078858;28;20038;-72
2021/01/28 08:21:05;;;;;;;12.07;9.23;;;;;;;;;;5086617;28;20102;-73
2021/01/28 08:23:31;;;;;;;12.43;8.57;;;;;;;;;;5091688;28;20078;-72
2021/01/28 08:25:57;;;;;;;12.75;8.23;;;;;;;;;;5094853;28;20017;-72
2021/01/28 08:28:26;;;;;;;;;;;;;;;;;;5093055;28;20069;-73
2021/01/28 08:30:57;;;;;;;12.48;8.35;;;;;;;;;;5088551;28;20213;-73
2021/01/28 08:33:32;;;;;;;10.70;7.63;;;;;;;;;;5106863;28;20023;-73
2021/01/28 08:36:01;;;;;;;10.70;8.23;;;;;;;;;;5092686;28;20020;-73
2021/01/28 08:38:31;;;;;;;12.13;8.10;;;;;;;;;;5103305;28;20059;-73
2021/01/28 08:40:59;;;;;;;15.13;8.35;;;;;;;;;;5082603;28;20380;-74
2021/01/28 08:43:27;;;;;;;12.73;8.75;;;;;;;;;;5092701;28;20021;-73
2021/01/28 08:46:10;;;;;;;11.30;7.40;;;;;;;;;;5082939;28;20421;-72
2021/01/28 08:48:35;;;;;;;12.55;8.15;;;;;;;;;;5088391;28;20029;-73
2021/01/28 08:51:05;;;;;;;10.13;7.83;;;;;;;;;;5099996;28;20023;-73
2021/01/28 08:53:31;;;;;;;13.38;8.82;;;;;;;;;;5088125;28;20029;-74
2021/01/28 08:56:04;;;;;;;11.47;8.60;;;;;;;;;;5091675;28;20031;-73
2021/01/28 08:58:30;;;;;;;12.45;8.75;;;;;;;;;;5091891;28;20028;-73
2021/01/28 09:00:59;;;;;;;14.38;8.25;;;;;;;;;;5086032;28;20046;-73
2021/01/28 09:03:30;;;;;;;13.48;8.50;;;;;;;;;;5099070;28;20047;-72
2021/01/28 09:05:58;;;;;;;12.07;8.70;;;;;;;;;;5093979;28;20025;-73
2021/01/28 09:08:44;;;;;;;13.10;8.82;;;;;;;;;;5105742;28;20047;-74
2021/01/28 09:11:24;;;;;;;13.35;8.77;;;;;;;;;;5093418;28;20025;-74
2021/01/28 09:14:13;;;;;;;13.55;8.63;;;;;;;;;;5093248;28;20426;-73
2021/01/28 09:16:38;;;;;;;12.30;8.48;;;;;;;;;;5084572;28;20031;-71
2021/01/28 09:19:09;;;;;;;13.77;8.70;;;;;;;;;;5079776;28;20016;-72
2021/01/28 09:21:38;;;;;;;11.23;7.32;;;;;;;;;;5085059;28;20028;-72
2021/01/28 09:24:22;;;;;;;11.02;7.10;;;;;;;;;;5089343;28;20088;-72
2021/01/28 09:27:01;;;;;;;13.05;7.63;;;;;;;;;;5089341;28;20020;-74
2021/01/28 09:29:35;;;;;;;10.55;6.85;;;;;;;;;;5083189;28;20439;-73
2021/01/28 09:32:24;;;;;;;9.52;7.00;;;;;;;;;;5097514;28;20035;-72
2021/01/28 09:35:04;;;;;;;10.23;7.28;;;;;;;;;;5088691;28;20042;-73
2021/01/28 09:37:29;;;;;;;12.88;7.57;;;;;;;;;;5096563;28;20019;-73
2021/01/28 09:39:55;;;;;;;9.63;7.03;;;;;;;;;;5095015;28;20016;-74
2021/01/28 09:42:25;;;;;;;9.93;6.75;;;;;;;;;;5090634;28;20406;-72
2021/01/28 09:44:54;;;;;;;11.50;6.78;;;;;;;;;;5084809;28;20073;-73
2021/01/28 09:47:21;;;;;;;9.82;6.43;;;;;;;;;;5088396;28;20418;-74
2021/01/28 09:49:47;;;;;;;10.70;6.20;;;;;;;;;;5090922;28;20035;-74
2021/01/28 09:52:17;;;;;;;8.18;5.90;;;;;;;;;;5095436;28;20024;-74
2021/01/28 09:54:43;;;;;;;8.05;6.45;;;;;;;;;;5082249;28;20081;-75
2021/01/28 09:57:08;;;;;;;7.67;5.77;;;;;;;;;;5090577;28;20036;-74
2021/01/28 09:59:33;;;;;;;8.50;6.03;;;;;;;;;;5085323;28;20016;-75
2021/01/28 10:01:58;;;;;;;9.77;6.50;;;;;;;;;;5096534;28;20035;-74
2021/01/28 10:04:23;;;;;;;9.00;6.73;;;;;;;;;;5093896;28;20012;-75
2021/01/28 10:06:49;;;;;;;9.23;6.93;;;;;;;;;;5080537;28;20410;-75
2021/01/28 10:09:14;;;;;;;10.93;7.07;;;;;;;;;;5082833;28;20028;-74
2021/01/28 10:11:39;;;;;;;9.60;6.87;;;;;;;;;;5081043;28;20094;-74
2021/01/28 10:14:05;;;;;;;9.90;7.03;;;;;;;;;;5079150;28;20028;-74
2021/01/28 10:16:31;;;;;;;9.30;7.10;;;;;;;;;;5080499;28;20020;-74
2021/01/28 10:18:56;;;;;;;;;;;;;;;;;;5079671;28;20029;-74
2021/01/28 10:21:21;;;;;;;9.90;7.43;;;;;;;;;;5088867;28;19999;-74
2021/01/28 10:23:56;;;;;;;9.20;6.90;;;;;;;;;;5085580;28;20020;-75
2021/01/28 10:26:21;;;;;;;8.13;6.60;;;;;;;;;;5079083;28;20009;-74
2021/01/28 10:28:46;;;;;;;10.07;7.37;;;;;;;;;;5080033;28;20082;-75
2021/01/28 10:31:15;;;;;;;8.60;7.07;;;;;;;;;;5092715;28;20012;-75
2021/01/28 10:33:47;;;;;;;8.20;7.22;;;;;;;;;;5092988;28;20023;-75
2021/01/28 10:36:16;;;;;;;9.18;7.25;;;;;;;;;;5079851;28;20417;-74
2021/01/28 10:38:41;;;;;;;10.07;7.97;;;;;;;;;;5083852;28;20028;-73
2021/01/28 10:41:07;;;;;;;10.47;8.07;;;;;;;;;;5078049;28;20317;-73
2021/01/28 10:43:32;;;;;;;8.13;7.23;;;;;;;;;;5097423;28;20020;-73
2021/01/28 10:45:57;;;;;;;9.87;7.40;;;;;;;;;;5092666;28;20024;-73
2021/01/28 10:48:29;;;;;;;9.77;7.50;;;;;;;;;;5092669;28;20020;-73
2021/01/28 10:50:54;;;;;;;8.43;7.10;;;;;;;;;;5093148;28;20012;-72
2021/01/28 10:53:19;;;;;;;7.90;6.90;;;;;;;;;;5096348;28;20125;-73
2021/01/28 10:55:45;;;;;;;9.60;8.17;;;;;;;;;;5094241;28;20443;-73
2021/01/28 10:58:10;;;;;;;8.40;7.03;;;;;;;;;;5091899;28;20020;-73
2021/01/28 11:00:35;;;;;;;7.37;6.50;;;;;;;;;;5092505;28;20044;-73
2021/01/28 11:03:03;;;;;;;7.67;6.50;;;;;;;;;;5092096;28;20103;-73
2021/01/28 11:05:30;;;;;;;7.28;6.53;;;;;;;;;;5082406;28;20434;-73
2021/01/28 11:07:59;;;;;;;8.15;6.65;;;;;;;;;;5089732;28;20016;-73
2021/01/28 11:10:25;;;;;;;7.45;6.65;;;;;;;;;;5090840;28;20077;-73
2021/01/28 11:12:54;;;;;;;8.35;6.80;;;;;;;;;;5090051;28;20008;-73
2021/01/28 11:15:21;;;;;;;7.10;6.40;;;;;;;;;;5092587;28;20028;-72
2021/01/28 11:17:49;;;;;;;7.50;6.70;;;;;;;;;;5087148;28;20052;-73
2021/01/28 11:20:14;;;;;;;8.05;7.20;;;;;;;;;;5082932;28;20085;-74
2021/01/28 11:22:40;;;;;;;7.10;6.40;;;;;;;;;;5091582;28;20008;-73
2021/01/28 11:25:07;;;;;;;7.20;6.47;;;;;;;;;;5093613;28;20016;-72
2021/01/28 11:27:32;;;;;;;7.20;6.50;;;;;;;;;;5090325;28;20023;-73
2021/01/28 11:29:59;;;;;;;7.90;7.10;;;;;;;;;;5093792;28;20027;-72
2021/01/28 11:32:24;;;;;;;8.38;7.50;;;;;;;;;;5091489;28;20027;-73
2021/01/28 11:34:50;;;;;;;8.43;7.03;;;;;;;;;;5080195;28;20316;-73
2021/01/28 11:37:18;;;;;;;7.33;6.63;;;;;;;;;;5079302;28;20090;-73
2021/01/28 11:39:47;;;;;;;7.13;6.40;;;;;;;;;;5085329;28;20015;-73
2021/01/28 11:42:13;;;;;;;7.28;6.55;;;;;;;;;;5083553;28;20020;-72
2021/01/28 11:44:38;;;;;;;7.90;7.10;;;;;;;;;;5076687;28;20024;-72
2021/01/28 11:47:03;;;;;;;7.40;6.47;;;;;;;;;;5080709;28;20012;-72
2021/01/28 11:49:28;;;;;;;7.77;6.97;;;;;;;;;;5104695;28;20019;-72
2021/01/28 11:51:54;;;;;;;8.17;7.37;;;;;;;;;;5085539;28;20108;-72
2021/01/28 11:54:19;;;;;;;8.57;7.33;;;;;;;;;;5092822;28;20039;-72
2021/01/28 11:56:44;;;;;;;9.30;8.30;;;;;;;;;;5085037;28;20055;-73
2021/01/28 11:59:09;;;;;;;8.70;7.80;;;;;;;;;;5089749;28;20027;-72
2021/01/28 12:01:34;;;;;;;8.63;7.50;;;;;;;;;;5088395;28;20404;-72
2021/01/28 12:04:00;;;;;;;8.13;7.33;;;;;;;;;;5092160;28;20424;-72
2021/01/28 12:06:25;;;;;;;7.63;6.93;;;;;;;;;;5089706;28;20017;-72
2021/01/28 12:08:50;;;;;;;8.90;7.60;;;;;;;;;;5093171;28;20034;-72
2021/01/28 12:11:15;;;;;;;9.00;8.10;;;;;;;;;;5093730;28;20024;-72
2021/01/28 12:13:40;;;;;;;8.73;7.83;;;;;;;;;;5087762;28;20017;-72
2021/01/28 12:16:06;;;;;;;8.30;7.50;;;;;;;;;;5096853;28;20412;-71
2021/01/28 12:18:31;;;;;;;7.80;7.00;;;;;;;;;;5099422;28;20035;-72
2021/01/28 12:20:56;;;;;;;7.47;6.67;;;;;;;;;;5095324;28;20031;-72
2021/01/28 12:23:21;;;;;;;7.23;6.57;;;;;;;;;;5091854;28;20023;-72
2021/01/28 12:25:47;;;;;;;7.40;6.60;;;;;;;;;;5078775;28;20413;-72
2021/01/28 12:28:12;;;;;;;6.57;5.97;;;;;;;;;;5083689;28;20139;-72
2021/01/28 12:30:38;;;;;;;6.97;6.28;;;;;;;;;;5086293;28;20036;-72
2021/01/28 12:33:03;;;;;;;7.97;6.67;;;;;;;;;;5094900;28;20103;-71
2021/01/28 12:35:28;;;;;;;6.93;6.23;;;;;;;;;;5090403;28;20020;-71
2021/01/28 12:37:53;;;;;;;7.77;6.57;;;;;;;;;;5093927;28;20134;-71
2021/01/28 12:40:20;;;;;;;6.47;5.83;;;;;;;;;;5093380;28;20012;-72
2021/01/28 12:42:45;;;;;;;7.53;6.22;;;;;;;;;;5094208;28;20028;-72
2021/01/28 12:45:10;;;;;;;6.30;5.70;;;;;;;;;;5093021;28;20096;-72
2021/01/28 12:47:36;;;;;;;6.70;6.03;;;;;;;;;;5084498;28;20019;-71
2021/01/28 12:50:02;;;;;;;7.70;6.43;;;;;;;;;;5088733;28;20020;-71
2021/01/28 12:52:27;;;;;;;6.72;6.03;;;;;;;;;;5097458;28;20080;-71
2021/01/28 12:54:52;;;;;;;7.17;6.43;;;;;;;;;;5099621;28;20020;-72
2021/01/28 12:57:18;;;;;;;7.30;6.60;;;;;;;;;;5091412;28;20095;-74
2021/01/28 12:59:45;;;;;;;8.05;7.25;;;;;;;;;;5088857;28;20101;-73
2021/01/28 13:02:10;;;;;;;8.27;7.47;;;;;;;;;;5078885;28;20017;-73
2021/01/28 13:04:36;;;;;;;7.43;6.73;;;;;;;;;;5080169;28;20016;-74
2021/01/28 13:07:01;;;;;;;10.37;8.10;;;;;;;;;;5089421;28;20074;-74
2021/01/28 13:09:26;;;;;;;9.10;7.90;;;;;;;;;;5090031;28;20074;-73
2021/01/28 13:11:51;;;;;;;9.53;8.53;;;;;;;;;;5087620;28;20012;-73
2021/01/28 13:14:16;;;;;;;8.73;7.40;;;;;;;;;;5088579;28;20477;-74
2021/01/28 13:16:42;;;;;;;9.13;8.23;;;;;;;;;;5096776;28;20023;-73
2021/01/28 13:19:07;;;;;;;8.87;8.07;;;;;;;;;;5091818;28;20015;-73
2021/01/28 13:21:33;;;;;;;9.33;8.43;;;;;;;;;;5095239;28;20024;-73
2021/01/28 13:23:58;;;;;;;9.40;8.50;;;;;;;;;;5091000;28;20295;-73
2021/01/28 13:26:23;;;;;;;10.50;9.40;;;;;;;;;;5095447;28;20098;-74
2021/01/28 13:28:48;;;;;;;10.63;9.53;;;;;;;;;;5083529;28;20017;-73
2021/01/28 13:31:14;;;;;;;11.67;9.10;;;;;;;;;;5081588;28;20082;-75
2021/01/28 13:33:39;;;;;;;10.37;9.27;;;;;;;;;;5094656;28;20032;-73
2021/01/28 13:36:05;;;;;;;9.95;8.93;;;;;;;;;;5087035;28;20079;-73
2021/01/28 13:38:30;;;;;;;10.73;9.50;;;;;;;;;;5094228;28;20039;-74
2021/01/28 13:40:55;;;;;;;11.33;10.13;;;;;;;;;;5081357;28;20025;-74
2021/01/28 13:43:21;;;;;;;10.87;9.77;;;;;;;;;;5094906;28;20073;-73
2021/01/28 13:45:46;;;;;;;10.87;9.77;;;;;;;;;;5095522;28;20020;-73
2021/01/28 13:48:12;;;;;;;11.43;10.23;;;;;;;;;;5093814;28;20115;-73
2021/01/28 13:50:38;;;;;;;9.87;8.93;;;;;;;;;;5086740;28;20412;-74
2021/01/28 13:53:04;;;;;;;11.07;9.98;;;;;;;;;;5097262;28;20320;-75
2021/01/28 13:55:29;;;;;;;10.30;9.20;;;;;;;;;;5094427;28;20020;-75
2021/01/28 13:57:54;;;;;;;10.23;9.23;;;;;;;;;;5094753;28;20099;-73
2021/01/28 14:00:22;;;;;;;9.77;8.88;;;;;;;;;;5096772;28;20048;-73
2021/01/28 14:02:47;;;;;;;9.77;8.77;;;;;;;;;;5088651;28;20382;-73
2021/01/28 14:05:13;;;;;;;10.07;9.17;;;;;;;;;;5087666;28;20060;-74
2021/01/28 14:07:38;;;;;;;10.87;9.77;;;;;;;;;;5079466;28;20016;-73
2021/01/28 14:10:04;;;;;;;12.18;10.98;;;;;;;;;;5102285;28;20020;-74
2021/01/28 14:12:29;;;;;;;11.90;10.70;;;;;;;;;;5080299;28;20035;-73
2021/01/28 14:14:55;;;;;;;12.33;11.03;;;;;;;;;;5090876;28;20036;-73
2021/01/28 14:17:20;;;;;;;12.33;11.13;;;;;;;;;;5089437;28;20020;-74
2021/01/28 14:19:45;;;;;;;13.87;12.47;;;;;;;;;;5076817;28;20017;-72
2021/01/28 14:22:10;;;;;;;15.83;12.70;;;;;;;;;;5085991;28;20020;-73
2021/01/28 14:24:35;;;;;;;13.77;12.37;;;;;;;;;;5078478;28;20017;-73
2021/01/28 14:27:02;;;;;;;13.90;12.57;;;;;;;;;;5090809;28;20036;-75
2021/01/28 14:29:28;;;;;;;13.50;12.10;;;;;;;;;;5097861;28;20114;-73